Time;durP1;ratioP1;P1;durP2;ratioP2;P2;SDS_P1;SDS_P2;PMS_P1;PMS_P2;Temp;Humidity;BMP_temperature;BMP_pressure;BME280_temperature;BME280_humidity;BME280_pressure;Samples;Min_cycle;Max_cycle;Signal;HPM_P1;HPM_P2
2022/01/26 00:06:52;;;;;;;3.88;2.53;;;23.10;59.00;;;;;;5027717;28;20620;-51
2022/01/26 00:09:26;;;;;;;3.13;2.20;;;23.10;59.00;;;;;;5028301;28;20196;-41
2022/01/26 00:11:58;;;;;;;3.67;2.45;;;23.20;58.90;;;;;;5025223;28;20207;-40
2022/01/26 00:14:29;;;;;;;3.15;2.45;;;23.20;59.00;;;;;;5026160;28;20223;-48
2022/01/26 00:17:00;;;;;;;2.65;2.45;;;23.20;58.90;;;;;;5025062;28;20212;-48
2022/01/26 00:19:45;;;;;;;3.65;2.47;;;23.30;58.90;;;;;;5028918;28;20589;-45
2022/01/26 00:22:35;;;;;;;3.35;2.65;;;23.30;58.90;;;;;;5028261;28;20741;-46
2022/01/26 00:25:22;;;;;;;3.00;2.65;;;23.30;58.80;;;;;;5026329;28;20699;-48
2022/01/26 00:27:57;;;;;;;3.17;2.60;;;23.30;58.80;;;;;;5027445;28;20192;-50
2022/01/26 00:38:49;;;;;;;2.85;2.50;;;23.50;58.70;;;;;;5022796;28;20251;-47
2022/01/26 00:41:33;;;;;;;3.17;2.88;;;23.50;58.70;;;;;;5025352;28;20228;-46
2022/01/26 00:44:05;;;;;;;3.42;2.90;;;23.50;58.70;;;;;;5025712;28;20208;-51
2022/01/26 00:46:37;;;;;;;3.75;2.55;;;23.60;58.70;;;;;;5024694;28;20259;-54
2022/01/26 00:49:08;;;;;;;4.00;2.90;;;23.60;58.60;;;;;;5027366;28;20220;-46
2022/01/26 00:51:38;;;;;;;3.85;2.70;;;23.60;58.60;;;;;;5026876;28;20204;-53
2022/01/26 00:54:09;;;;;;;2.97;2.47;;;23.70;58.60;;;;;;5027118;28;20762;-51
2022/01/26 00:56:41;;;;;;;3.35;2.83;;;23.70;58.60;;;;;;5024348;28;20204;-49
2022/01/26 00:59:12;;;;;;;3.10;2.45;;;23.70;58.60;;;;;;5025656;28;20295;-48
2022/01/26 01:01:45;;;;;;;2.92;2.50;;;23.70;58.50;;;;;;5025497;28;20230;-46
2022/01/26 01:04:15;;;;;;;2.90;2.60;;;23.80;58.50;;;;;;5025985;28;20327;-43
2022/01/26 01:06:50;;;;;;;3.10;2.63;;;23.80;58.40;;;;;;5027912;28;20192;-45
2022/01/26 01:09:23;;;;;;;4.28;2.83;;;23.80;58.40;;;;;;5027209;28;20191;-50
2022/01/26 01:11:57;;;;;;;3.58;2.67;;;23.80;58.40;;;;;;5022893;28;20193;-43
2022/01/26 01:14:28;;;;;;;3.40;2.63;;;23.90;58.40;;;;;;5024609;28;20200;-54
2022/01/26 01:17:02;;;;;;;2.92;2.53;;;23.90;58.30;;;;;;5023631;28;20262;-50
2022/01/26 01:19:43;;;;;;;3.20;2.75;;;23.90;58.30;;;;;;5024610;28;20677;-47
2022/01/26 01:22:35;;;;;;;3.90;2.83;;;24.00;58.30;;;;;;5024426;28;20274;-44
2022/01/26 01:25:51;;;;;;;4.90;2.80;;;24.00;58.30;;;;;;5024919;28;20216;-49
2022/01/26 01:28:25;;;;;;;4.15;2.92;;;24.00;58.40;;;;;;5023550;28;20670;-51
2022/01/26 01:30:59;;;;;;;5.43;2.90;;;24.10;58.40;;;;;;5023634;28;20337;-54
2022/01/26 01:33:32;;;;;;;4.70;2.72;;;24.10;58.40;;;;;;5025785;28;20211;-53
2022/01/26 01:36:05;;;;;;;4.63;2.90;;;24.10;58.40;;;;;;5027009;28;20529;-53
2022/01/26 01:38:39;;;;;;;3.88;2.75;;;24.10;58.40;;;;;;5025129;28;20298;-55
2022/01/26 01:41:11;;;;;;;4.65;2.85;;;24.20;58.50;;;;;;5025171;28;20717;-51
2022/01/26 01:43:43;;;;;;;3.65;2.63;;;24.20;58.40;;;;;;5023213;28;20200;-46
2022/01/26 01:46:14;;;;;;;3.00;2.70;;;24.20;58.30;;;;;;5024920;28;20232;-46
2022/01/26 01:48:45;;;;;;;3.28;2.65;;;24.30;58.30;;;;;;5024100;28;20204;-55
2022/01/26 01:51:17;;;;;;;6.75;3.28;;;24.30;58.20;;;;;;5027309;28;20219;-43
2022/01/26 01:53:47;;;;;;;3.53;2.70;;;24.30;58.20;;;;;;5025457;28;20619;-56
2022/01/26 01:56:22;;;;;;;5.10;2.80;;;24.30;58.10;;;;;;5023234;28;20278;-57
2022/01/26 01:58:57;;;;;;;4.95;2.80;;;24.30;58.10;;;;;;5022205;28;20211;-48
2022/01/26 02:01:28;;;;;;;4.32;2.92;;;24.40;58.20;;;;;;5025908;28;20227;-51
2022/01/26 02:03:59;;;;;;;3.47;2.55;;;24.40;58.20;;;;;;5022850;28;20207;-54
2022/01/26 02:06:29;;;;;;;4.72;3.10;;;24.40;58.20;;;;;;5025187;28;20228;-56
2022/01/26 02:09:00;;;;;;;3.72;2.88;;;24.50;58.40;;;;;;5027565;28;20243;-52
2022/01/26 02:11:31;;;;;;;3.70;2.72;;;24.50;58.30;;;;;;5025522;28;20212;-52
2022/01/26 02:14:07;;;;;;;5.88;3.42;;;24.50;58.30;;;;;;5022327;28;20209;-48
2022/01/26 02:16:45;;;;;;;4.30;2.70;;;24.60;58.30;;;;;;5024527;28;20536;-51
2022/01/26 02:50:12;;;;;;;4.40;3.10;;;24.90;57.80;;;;;;5024028;28;20288;-50
2022/01/26 02:52:54;;;;;;;4.72;3.30;;;24.90;57.80;;;;;;5023479;28;20573;-48
2022/01/26 02:55:37;;;;;;;5.82;3.13;;;25.00;57.70;;;;;;5021746;28;20374;-47
2022/01/26 02:58:37;;;;;;;4.80;3.10;;;25.00;57.70;;;;;;5023628;28;20609;-43
2022/01/26 03:01:25;;;;;;;4.93;3.05;;;25.00;57.60;;;;;;5024479;28;20208;-49
2022/01/26 03:04:03;;;;;;;4.20;3.00;;;25.10;57.60;;;;;;5022595;28;20200;-49
2022/01/26 03:06:40;;;;;;;4.95;3.00;;;25.10;57.60;;;;;;5023045;28;20251;-50
2022/01/26 03:09:14;;;;;;;5.35;3.10;;;25.10;57.50;;;;;;5023420;28;20200;-47
2022/01/26 03:11:47;;;;;;;4.90;3.53;;;25.20;57.50;;;;;;5023786;28;20569;-56
2022/01/26 03:14:28;;;;;;;3.67;2.92;;;25.20;57.50;;;;;;5026362;28;20200;-54
2022/01/26 03:17:04;;;;;;;5.15;3.03;;;25.20;57.40;;;;;;5023972;28;20191;-47
2022/01/26 03:19:38;;;;;;;4.38;2.85;;;25.20;57.40;;;;;;5023011;28;20226;-48
2022/01/26 03:31:06;;;;;;;5.50;3.20;;;25.40;57.30;;;;;;5022351;28;20199;-51
2022/01/26 03:36:43;;;;;;;6.38;3.38;;;25.40;57.20;;;;;;4999245;28;20231;-46
2022/01/26 03:39:15;;;;;;;5.53;3.40;;;25.50;57.20;;;;;;5025472;28;20211;-49
2022/01/26 03:41:48;;;;;;;4.45;3.20;;;25.50;57.70;;;;;;5027843;28;20224;-52
2022/01/26 03:44:21;;;;;;;4.05;3.08;;;25.50;57.10;;;;;;5028065;28;20192;-46
2022/01/26 03:46:53;;;;;;;5.22;3.17;;;25.50;57.10;;;;;;5030475;28;20208;-45
2022/01/26 03:49:24;;;;;;;5.40;3.13;;;25.50;57.10;;;;;;5028487;28;20258;-49
2022/01/26 03:51:54;;;;;;;5.18;3.67;;;25.50;57.00;;;;;;5025217;28;20247;-48
2022/01/26 03:54:25;;;;;;;7.15;3.15;;;25.60;57.10;;;;;;5025565;28;20223;-49
2022/01/26 03:56:56;;;;;;;5.50;3.40;;;25.60;57.00;;;;;;5025288;28;20200;-56
2022/01/26 03:59:28;;;;;;;6.63;3.72;;;25.60;57.00;;;;;;5025046;28;20282;-44
2022/01/26 04:01:59;;;;;;;5.72;3.50;;;25.60;56.90;;;;;;5028892;28;20278;-46
2022/01/26 04:04:35;;;;;;;5.97;3.65;;;25.60;56.90;;;;;;5027941;28;20184;-44
2022/01/26 04:07:06;;;;;;;6.05;3.35;;;25.70;56.90;;;;;;5026916;28;20733;-50
2022/01/26 04:09:37;;;;;;;6.35;3.70;;;25.70;57.20;;;;;;5024047;28;20744;-42
2022/01/26 04:12:08;;;;;;;5.30;2.95;;;25.70;56.90;;;;;;5024943;28;20223;-44
2022/01/26 04:14:43;;;;;;;4.97;3.17;;;25.70;56.90;;;;;;5027181;28;20687;-52
2022/01/26 04:17:14;;;;;;;4.20;3.15;;;25.80;56.90;;;;;;5026993;28;20744;-47
2022/01/26 04:19:50;;;;;;;5.60;3.38;;;25.80;56.90;;;;;;5027141;28;20196;-54
2022/01/26 04:22:26;;;;;;;4.65;3.63;;;25.80;56.90;;;;;;5028818;28;20220;-44
2022/01/26 04:24:57;;;;;;;5.82;3.63;;;25.80;56.90;;;;;;5026394;28;20223;-51
2022/01/26 04:27:35;;;;;;;5.70;3.42;;;25.90;56.80;;;;;;5026555;28;20193;-49
2022/01/26 04:30:08;;;;;;;5.47;3.35;;;25.90;56.80;;;;;;5026006;28;20208;-45
2022/01/26 04:32:39;;;;;;;5.07;3.38;;;25.90;56.80;;;;;;5024367;28;20671;-54
2022/01/26 04:35:10;;;;;;;5.95;3.47;;;25.90;56.80;;;;;;5026035;28;20217;-50
2022/01/26 04:38:01;;;;;;;5.10;3.38;;;26.00;56.80;;;;;;5026446;28;20258;-54
2022/01/26 04:40:38;;;;;;;4.53;3.28;;;26.00;56.60;;;;;;5024530;28;20742;-46
2022/01/26 04:43:15;;;;;;;6.75;3.72;;;26.00;56.50;;;;;;5027231;28;20219;-51
2022/01/26 04:45:48;;;;;;;5.57;3.53;;;26.10;56.70;;;;;;5025802;28;20220;-42
2022/01/26 04:48:18;;;;;;;5.63;3.38;;;26.10;56.50;;;;;;5024816;28;20200;-50
2022/01/26 04:50:49;;;;;;;6.40;3.80;;;26.10;56.40;;;;;;5025710;28;20684;-40
2022/01/26 04:53:20;;;;;;;5.55;3.72;;;26.20;57.00;;;;;;5025091;28;21687;-46
2022/01/26 04:55:52;;;;;;;4.75;3.33;;;26.20;56.40;;;;;;5023498;28;20271;-41
2022/01/26 04:58:22;;;;;;;4.32;3.45;;;26.20;56.40;;;;;;5027056;28;20219;-57
2022/01/26 05:00:55;;;;;;;5.70;3.80;;;26.20;56.50;;;;;;5029792;28;20196;-51
2022/01/26 05:03:25;;;;;;;5.20;3.35;;;26.20;56.40;;;;;;5025110;28;20220;-54
2022/01/26 05:05:56;;;;;;;3.80;3.22;;;26.20;56.40;;;;;;5023441;28;20224;-55
2022/01/26 05:08:26;;;;;;;4.10;3.20;;;26.20;56.30;;;;;;5023959;28;20258;-56
2022/01/26 05:10:57;;;;;;;6.38;3.67;;;26.20;56.20;;;;;;5023118;28;20545;-51
2022/01/26 05:13:28;;;;;;;5.30;3.70;;;26.20;56.20;;;;;;5025631;28;20204;-53
2022/01/26 05:16:00;;;;;;;5.60;3.30;;;26.30;56.20;;;;;;5026908;28;20220;-53
2022/01/26 05:18:31;;;;;;;5.45;3.90;;;26.30;56.20;;;;;;5027418;28;20192;-43
2022/01/26 05:21:01;;;;;;;5.80;3.72;;;26.30;56.10;;;;;;5023798;28;20273;-46
2022/01/26 05:23:32;;;;;;;9.02;4.40;;;26.30;56.10;;;;;;5024218;28;20509;-45
2022/01/26 05:26:02;;;;;;;9.50;4.32;;;26.30;56.20;;;;;;5023384;28;20215;-44
2022/01/26 05:28:33;;;;;;;12.50;4.95;;;26.30;56.40;;;;;;5021993;28;20201;-45
2022/01/26 05:31:05;;;;;;;9.48;4.32;;;26.40;56.50;;;;;;5025344;28;20255;-44
2022/01/26 05:33:36;;;;;;;9.20;3.97;;;26.40;56.50;;;;;;5027062;28;20647;-44
2022/01/26 05:36:07;;;;;;;12.27;4.50;;;26.40;56.40;;;;;;5024747;28;20224;-42
2022/01/26 05:38:38;;;;;;;7.75;3.80;;;26.40;56.40;;;;;;5024282;28;20204;-53
2022/01/26 05:41:10;;;;;;;6.97;3.58;;;26.40;56.30;;;;;;5024549;28;20200;-50
2022/01/26 05:43:40;;;;;;;7.35;3.70;;;26.40;56.30;;;;;;5020769;28;20298;-53
2022/01/26 05:46:18;;;;;;;9.10;4.45;;;26.40;56.30;;;;;;5025003;28;20777;-48
2022/01/26 05:48:49;;;;;;;6.72;3.60;;;26.40;56.30;;;;;;5025375;28;20206;-48
2022/01/26 05:51:20;;;;;;;8.45;4.03;;;26.40;56.20;;;;;;5025893;28;20617;-47
2022/01/26 05:53:50;;;;;;;7.03;3.67;;;26.40;56.30;;;;;;5024359;28;20203;-45
2022/01/26 05:56:21;;;;;;;8.45;4.05;;;26.40;56.30;;;;;;5022387;28;20216;-46
2022/01/26 05:58:52;;;;;;;7.30;4.20;;;26.40;56.30;;;;;;5023962;28;20224;-48
2022/01/26 06:01:24;;;;;;;6.97;3.80;;;26.40;56.30;;;;;;5025567;28;20624;-51
2022/01/26 06:03:55;;;;;;;6.28;3.40;;;26.40;56.30;;;;;;5023354;28;20256;-54
2022/01/26 06:06:25;;;;;;;7.03;3.75;;;26.40;56.30;;;;;;5023165;28;20220;-52
2022/01/26 06:08:56;;;;;;;7.30;4.07;;;26.40;56.30;;;;;;5027408;28;20201;-54
2022/01/26 06:11:27;;;;;;;9.07;3.70;;;26.30;56.30;;;;;;5024408;28;20282;-49
2022/01/26 06:13:57;;;;;;;6.93;3.58;;;26.40;56.30;;;;;;5023844;28;20204;-43
2022/01/26 06:16:30;;;;;;;6.57;3.50;;;26.40;56.30;;;;;;5023030;28;20635;-45
2022/01/26 06:19:00;;;;;;;6.90;3.80;;;26.30;56.20;;;;;;5025860;28;20200;-46
2022/01/26 06:21:31;;;;;;;7.28;4.05;;;26.30;56.20;;;;;;5026222;28;20269;-42
2022/01/26 06:24:01;;;;;;;8.90;4.22;;;26.30;56.30;;;;;;5027068;28;20270;-42
2022/01/26 06:26:32;;;;;;;8.23;4.38;;;26.30;56.40;;;;;;5024431;28;20285;-43
2022/01/26 06:29:02;;;;;;;7.05;3.70;;;26.30;56.40;;;;;;5022482;28;20254;-43
2022/01/26 06:31:38;;;;;;;8.38;3.88;;;26.30;56.40;;;;;;5023280;28;20266;-42
2022/01/26 06:34:13;;;;;;;7.63;4.43;;;26.30;56.40;;;;;;5023627;28;20203;-46
2022/01/26 06:36:44;;;;;;;6.18;3.80;;;26.30;56.30;;;;;;5024485;28;20204;-42
2022/01/26 06:39:15;;;;;;;8.10;4.15;;;26.30;56.30;;;;;;5025298;28;20203;-43
2022/01/26 06:41:50;;;;;;;7.32;3.72;;;26.30;56.40;;;;;;5026312;28;20247;-42
2022/01/26 06:44:26;;;;;;;5.13;3.90;;;26.30;56.30;;;;;;5024437;28;20726;-44
2022/01/26 06:47:15;;;;;;;6.07;3.70;;;26.20;56.30;;;;;;5021026;28;20294;-45
2022/01/26 06:49:46;;;;;;;5.18;3.78;;;26.20;56.30;;;;;;5023441;28;20210;-44
2022/01/26 06:52:19;;;;;;;6.68;4.00;;;26.20;56.30;;;;;;5024726;28;20200;-43
2022/01/26 06:54:49;;;;;;;6.47;3.95;;;26.20;56.30;;;;;;5022533;28;20216;-42
2022/01/26 06:57:20;;;;;;;8.75;4.30;;;26.20;56.30;;;;;;5024024;28;20204;-42
2022/01/26 06:59:50;;;;;;;5.75;3.67;;;26.20;56.30;;;;;;5026970;28;20196;-46
2022/01/26 07:02:23;;;;;;;6.93;4.25;;;26.20;56.30;;;;;;5025324;28;20199;-51
2022/01/26 07:04:53;;;;;;;5.80;4.28;;;26.20;56.30;;;;;;5022755;28;20321;-42
2022/01/26 07:07:24;;;;;;;5.65;4.18;;;26.20;56.30;;;;;;5023224;28;20266;-43
2022/01/26 07:09:55;;;;;;;6.63;4.00;;;26.20;56.20;;;;;;5021659;28;20208;-48
2022/01/26 07:12:25;;;;;;;6.32;4.00;;;26.20;56.20;;;;;;5024000;28;20255;-48
2022/01/26 07:23:20;;;;;;;4.85;4.07;;;26.20;56.10;;;;;;5024901;28;20220;-40
2022/01/26 07:25:50;;;;;;;6.25;3.90;;;26.20;56.10;;;;;;5009317;28;20220;-49
2022/01/26 07:28:21;;;;;;;5.55;4.07;;;26.20;56.20;;;;;;5006991;28;20200;-40
2022/01/26 07:30:52;;;;;;;5.35;3.72;;;26.20;56.20;;;;;;5005509;28;20216;-40
2022/01/26 07:33:24;;;;;;;5.53;3.58;;;26.10;56.10;;;;;;5007572;28;20196;-45
2022/01/26 07:35:55;;;;;;;4.78;3.75;;;26.10;56.10;;;;;;5006084;28;20355;-44
2022/01/26 07:38:26;;;;;;;6.03;4.28;;;26.10;56.10;;;;;;4989826;28;20240;-44
2022/01/26 07:40:56;;;;;;;4.82;3.55;;;26.10;56.10;;;;;;5006729;28;20285;-40
2022/01/26 07:43:27;;;;;;;5.40;3.60;;;26.10;56.20;;;;;;5007023;28;20224;-49
2022/01/26 07:45:58;;;;;;;5.03;3.75;;;26.10;56.20;;;;;;5000032;28;20272;-45
2022/01/26 07:48:30;;;;;;;5.80;4.05;;;26.00;56.20;;;;;;5000826;28;20198;-46
2022/01/26 07:51:01;;;;;;;5.70;3.80;;;26.00;56.20;;;;;;4997192;28;20707;-43
2022/01/26 07:53:32;;;;;;;4.13;3.75;;;26.00;56.20;;;;;;5007241;28;20291;-40
2022/01/26 07:56:02;;;;;;;6.60;3.97;;;26.00;56.20;;;;;;5008818;28;20252;-42
2022/01/26 07:58:33;;;;;;;5.45;3.55;;;26.00;56.20;;;;;;5006856;28;20251;-40
2022/01/26 08:01:04;;;;;;;5.00;3.67;;;26.00;56.20;;;;;;5007622;28;20691;-40
2022/01/26 08:03:37;;;;;;;5.43;3.28;;;26.00;56.20;;;;;;5005859;28;20232;-39
2022/01/26 08:06:14;;;;;;;4.10;3.60;;;26.00;56.20;;;;;;5005965;28;20255;-40
2022/01/26 08:08:44;;;;;;;4.75;4.00;;;26.00;56.20;;;;;;5007110;28;20203;-44
2022/01/26 08:11:15;;;;;;;5.60;4.22;;;26.00;56.20;;;;;;5008731;28;20252;-40
2022/01/26 08:13:45;;;;;;;4.82;3.45;;;26.00;56.20;;;;;;5007688;28;20767;-40
2022/01/26 08:16:16;;;;;;;4.90;3.75;;;26.00;56.10;;;;;;4997438;28;20265;-41
2022/01/26 08:18:48;;;;;;;4.18;3.58;;;25.90;56.10;;;;;;5005697;28;20200;-44
2022/01/26 08:21:19;;;;;;;5.10;3.70;;;26.00;56.20;;;;;;5002242;28;20284;-47
2022/01/26 08:23:50;;;;;;;6.18;4.30;;;25.90;56.10;;;;;;5002655;28;20268;-45
2022/01/26 08:26:26;;;;;;;5.40;3.92;;;25.90;56.10;;;;;;5001707;28;20224;-44
2022/01/26 08:28:57;;;;;;;5.57;3.90;;;25.90;56.10;;;;;;4995351;28;20200;-45
2022/01/26 08:31:28;;;;;;;5.55;4.22;;;25.80;56.10;;;;;;5011673;28;20204;-54
2022/01/26 08:34:00;;;;;;;7.00;4.70;;;25.90;56.30;;;;;;5010241;28;20207;-46
2022/01/26 08:36:31;;;;;;;5.47;4.43;;;25.80;56.30;;;;;;5007446;28;22030;-60
2022/01/26 08:39:01;;;;;;;5.07;4.35;;;25.80;56.30;;;;;;5022469;28;20200;-60
2022/01/26 08:41:32;;;;;;;5.97;4.30;;;25.80;56.40;;;;;;5025718;28;20204;-56
2022/01/26 08:44:02;;;;;;;6.82;4.63;;;25.80;56.40;;;;;;5024677;28;20231;-59
2022/01/26 08:46:33;;;;;;;6.20;4.72;;;25.80;56.40;;;;;;5026619;28;20274;-58
2022/01/26 08:49:06;;;;;;;7.32;4.50;;;25.80;56.40;;;;;;5027171;28;20259;-59
2022/01/26 08:51:37;;;;;;;8.02;4.65;;;25.70;56.30;;;;;;5024162;28;20692;-43
2022/01/26 08:54:10;;;;;;;8.50;5.40;;;25.70;56.30;;;;;;5027294;28;20196;-53
2022/01/26 08:56:41;;;;;;;7.53;4.80;;;25.70;56.30;;;;;;5025256;28;20212;-46
2022/01/26 08:59:12;;;;;;;8.85;4.40;;;25.70;56.30;;;;;;5023518;28;20901;-45
2022/01/26 09:01:42;;;;;;;9.50;4.70;;;25.70;56.20;;;;;;5028013;28;20200;-45
2022/01/26 09:04:15;;;;;;;8.75;4.65;;;25.70;56.10;;;;;;5026458;28;20224;-56
2022/01/26 09:06:54;;;;;;;7.68;4.10;;;25.60;56.10;;;;;;5027035;28;20610;-60
2022/01/26 09:09:27;;;;;;;6.72;4.40;;;25.60;56.00;;;;;;5024753;28;20656;-45
2022/01/26 09:11:59;;;;;;;6.20;4.18;;;25.60;55.90;;;;;;5024788;28;20219;-46
2022/01/26 09:14:29;;;;;;;6.35;4.03;;;25.50;55.80;;;;;;5025729;28;20204;-53
2022/01/26 09:17:02;;;;;;;6.68;3.88;;;25.50;55.80;;;;;;5025999;28;20266;-53
2022/01/26 09:19:34;;;;;;;6.55;3.80;;;25.50;55.80;;;;;;5026032;28;20250;-42
2022/01/26 09:22:07;;;;;;;5.93;4.00;;;25.50;55.80;;;;;;5027536;28;20197;-55
2022/01/26 09:24:39;;;;;;;6.20;4.25;;;25.40;55.70;;;;;;5025310;28;20228;-54
2022/01/26 09:27:12;;;;;;;7.18;4.15;;;25.40;55.70;;;;;;5023810;28;20201;-54
2022/01/26 09:29:43;;;;;;;5.75;4.35;;;25.40;55.60;;;;;;5023301;28;20208;-52
2022/01/26 09:32:13;;;;;;;5.20;3.75;;;25.30;55.50;;;;;;5023039;28;20262;-49
2022/01/26 09:34:46;;;;;;;6.65;3.75;;;25.30;55.60;;;;;;5024544;28;20688;-48
2022/01/26 09:37:19;;;;;;;6.32;3.65;;;25.30;55.50;;;;;;5025102;28;20243;-48
2022/01/26 09:39:52;;;;;;;5.32;4.00;;;25.20;55.40;;;;;;5027801;28;20200;-56
2022/01/26 09:42:22;;;;;;;4.32;3.70;;;25.20;55.50;;;;;;5025701;28;20262;-52
2022/01/26 09:44:53;;;;;;;6.38;3.67;;;25.20;55.40;;;;;;5025389;28;20246;-46
2022/01/26 09:47:26;;;;;;;6.10;3.50;;;25.20;55.40;;;;;;5024431;28;20916;-46
2022/01/26 09:49:59;;;;;;;6.45;3.85;;;25.10;55.30;;;;;;5024201;28;20633;-47
2022/01/26 09:52:34;;;;;;;5.63;3.58;;;25.10;55.30;;;;;;5023964;28;20208;-42
2022/01/26 09:55:07;;;;;;;5.15;3.42;;;25.10;55.30;;;;;;5026381;28;20227;-49
2022/01/26 09:57:40;;;;;;;5.75;3.70;;;25.00;55.20;;;;;;5024430;28;20538;-45
2022/01/26 10:00:12;;;;;;;5.88;3.88;;;25.00;55.20;;;;;;5026663;28;20676;-43
2022/01/26 10:02:44;;;;;;;7.45;3.70;;;25.00;55.20;;;;;;5025213;28;20196;-43
2022/01/26 10:05:19;;;;;;;4.90;3.20;;;24.90;55.20;;;;;;5022777;28;20573;-47
2022/01/26 10:08:02;;;;;;;5.35;3.30;;;24.90;55.20;;;;;;5024002;28;20250;-47
2022/01/26 10:16:25;;;;;;;3.88;3.00;;;24.70;55.20;;;;;;5025514;28;20353;-59
2022/01/26 10:18:59;;;;;;;4.57;3.15;;;24.70;55.20;;;;;;5023940;28;20196;-49
2022/01/26 10:21:32;;;;;;;5.13;3.35;;;24.70;55.20;;;;;;5026411;28;20737;-49
2022/01/26 10:24:10;;;;;;;5.03;3.10;;;24.70;55.20;;;;;;5025514;28;20224;-50
2022/01/26 10:26:41;;;;;;;3.78;2.85;;;24.70;55.20;;;;;;5024903;28;20213;-49
2022/01/26 10:29:11;;;;;;;3.97;3.00;;;24.60;55.20;;;;;;5024266;28;20250;-49
2022/01/26 10:31:42;;;;;;;3.63;2.95;;;24.60;55.30;;;;;;5024587;28;20196;-44
2022/01/26 10:34:15;;;;;;;4.78;3.15;;;24.60;55.20;;;;;;5023473;28;20198;-49
2022/01/26 10:36:48;;;;;;;4.78;3.33;;;24.50;55.20;;;;;;5023507;28;20212;-54
2022/01/26 10:39:23;;;;;;;4.47;2.90;;;24.50;55.20;;;;;;5026908;28;20609;-56
2022/01/26 10:41:57;;;;;;;4.10;2.78;;;24.40;55.20;;;;;;5026771;28;20202;-53
2022/01/26 10:44:32;;;;;;;4.00;2.67;;;24.40;55.20;;;;;;5021678;28;20564;-49
2022/01/26 10:47:05;;;;;;;4.47;2.97;;;24.40;55.20;;;;;;5022864;28;20735;-54
2022/01/26 10:50:07;;;;;;;5.40;2.83;;;24.30;55.20;;;;;;5023482;28;20691;-54
2022/01/26 10:52:40;;;;;;;4.65;2.85;;;24.30;55.30;;;;;;5023149;28;20195;-52
2022/01/26 10:55:12;;;;;;;3.03;2.50;;;24.30;55.30;;;;;;5021647;28;20580;-55
2022/01/26 10:57:43;;;;;;;3.85;2.80;;;24.30;55.30;;;;;;5022124;28;20209;-49
2022/01/26 11:00:14;;;;;;;4.95;2.60;;;24.20;55.30;;;;;;5026424;28;20259;-56
2022/01/26 11:02:48;;;;;;;4.13;2.60;;;24.20;55.40;;;;;;5024595;28;20224;-50
2022/01/26 11:05:19;;;;;;;3.00;2.30;;;24.20;55.40;;;;;;5023327;28;20289;-50
2022/01/26 11:07:52;;;;;;;4.05;2.33;;;24.20;55.40;;;;;;5021628;28;20207;-49
2022/01/26 11:10:24;;;;;;;4.43;2.60;;;24.10;55.30;;;;;;5022323;28;20285;-49
2022/01/26 11:12:54;;;;;;;3.35;2.35;;;24.10;55.30;;;;;;5022581;28;20196;-46
2022/01/26 11:15:26;;;;;;;3.88;2.60;;;24.10;55.30;;;;;;5022631;28;20220;-48
2022/01/26 11:18:09;;;;;;;2.78;2.35;;;24.00;55.30;;;;;;5025599;28;20204;-45
2022/01/26 11:20:50;;;;;;;4.72;2.60;;;24.00;55.30;;;;;;5023316;28;20203;-56
2022/01/26 11:23:35;;;;;;;3.20;2.28;;;24.00;55.30;;;;;;5009772;28;20193;-48
2022/01/26 11:26:06;;;;;;;3.65;2.38;;;24.00;55.30;;;;;;4995129;28;20229;-51
2022/01/26 11:28:46;;;;;;;3.00;2.33;;;23.90;55.30;;;;;;5006010;28;20209;-51
2022/01/26 11:31:20;;;;;;;2.88;2.10;;;23.90;55.30;;;;;;5007203;28;20932;-50
2022/01/26 11:33:52;;;;;;;3.15;2.50;;;23.90;55.30;;;;;;5009255;28;20200;-49
2022/01/26 11:36:22;;;;;;;3.65;2.40;;;23.80;55.30;;;;;;5005604;28;20873;-52
2022/01/26 11:45:11;;;;;;;3.72;2.38;;;23.80;55.40;;;;;;4964289;28;20316;-44
2022/01/26 11:47:47;;;;;;;3.60;2.10;;;23.70;55.40;;;;;;4964446;28;20273;-56
2022/01/26 11:50:23;;;;;;;3.97;2.33;;;23.70;55.30;;;;;;4991008;28;20197;-48
2022/01/26 11:53:03;;;;;;;2.85;2.05;;;23.70;55.40;;;;;;5006231;28;20193;-53
2022/01/26 11:55:42;;;;;;;2.83;2.08;;;23.70;55.40;;;;;;5005725;28;20220;-43
2022/01/26 11:58:17;;;;;;;4.32;2.67;;;23.60;55.40;;;;;;5007846;28;20209;-47
2022/01/26 12:00:58;;;;;;;3.10;2.10;;;23.60;55.40;;;;;;5011965;28;20695;-52
2022/01/26 12:03:32;;;;;;;3.75;2.05;;;23.60;55.40;;;;;;5008780;28;20653;-51
2022/01/26 12:06:03;;;;;;;3.67;2.00;;;23.60;55.40;;;;;;5010510;28;20256;-58
2022/01/26 12:08:36;;;;;;;3.42;2.15;;;23.50;55.30;;;;;;5011076;28;20201;-56
2022/01/26 12:11:10;;;;;;;3.45;2.10;;;23.50;55.40;;;;;;5000552;28;20194;-49
2022/01/26 12:13:41;;;;;;;3.28;2.28;;;23.50;55.40;;;;;;5010398;28;20286;-55
2022/01/26 12:16:15;;;;;;;2.78;1.88;;;23.50;55.40;;;;;;5009624;28;20220;-46
2022/01/26 12:18:53;;;;;;;2.83;1.88;;;23.50;55.40;;;;;;5011487;28;20652;-57
2022/01/26 12:32:58;;;;;;;2.85;1.77;;;23.30;55.40;;;;;;5010205;28;20212;-57
2022/01/26 12:35:41;;;;;;;2.70;1.98;;;23.30;55.40;;;;;;5010789;28;20626;-57
2022/01/26 12:38:17;;;;;;;3.47;1.88;;;23.30;55.50;;;;;;5008041;28;20203;-50
2022/01/26 12:43:52;;;;;;;2.50;1.90;;;23.20;55.40;;;;;;4970536;28;20194;-49
2022/01/26 12:46:24;;;;;;;1.90;1.60;;;23.20;55.40;;;;;;5003384;28;20258;-55
2022/01/26 12:48:56;;;;;;;2.90;1.90;;;23.20;55.40;;;;;;5009922;28;20205;-57
2022/01/26 12:51:28;;;;;;;1.88;1.55;;;23.20;55.40;;;;;;5009286;28;20213;-52
2022/01/26 12:53:59;;;;;;;2.30;1.55;;;23.20;55.40;;;;;;5010169;28;20289;-51
2022/01/26 12:56:32;;;;;;;2.03;1.60;;;23.10;55.40;;;;;;5009912;28;20266;-51
2022/01/26 12:59:06;;;;;;;1.92;1.58;;;23.10;55.40;;;;;;4997883;28;20684;-51
2022/01/26 13:01:38;;;;;;;3.28;1.77;;;23.10;55.50;;;;;;4999446;28;20653;-52
2022/01/26 13:04:10;;;;;;;1.90;1.58;;;23.10;55.50;;;;;;4995327;28;20600;-55
2022/01/26 13:06:47;;;;;;;2.08;1.65;;;23.00;55.40;;;;;;5008252;28;20637;-53
2022/01/26 13:09:20;;;;;;;2.58;1.90;;;23.00;55.50;;;;;;5002358;28;20205;-49
2022/01/26 13:11:52;;;;;;;2.22;1.60;;;23.00;55.40;;;;;;5003056;28;20772;-44
2022/01/26 13:14:27;;;;;;;2.90;1.67;;;23.00;55.50;;;;;;5009235;28;20198;-55
2022/01/26 13:17:06;;;;;;;2.22;1.40;;;23.00;55.50;;;;;;5010298;28;20201;-47
2022/01/26 13:19:49;;;;;;;3.00;2.00;;;22.90;55.40;;;;;;4999408;28;20787;-47
2022/01/26 13:22:43;;;;;;;2.72;1.70;;;22.90;55.40;;;;;;5011650;28;20653;-52
2022/01/26 13:25:29;;;;;;;3.35;1.67;;;22.90;55.40;;;;;;5012161;28;20221;-54
2022/01/26 13:28:17;;;;;;;2.25;1.42;;;22.90;55.40;;;;;;5008945;28;20230;-55
2022/01/26 13:31:08;;;;;;;1.58;1.40;;;22.90;55.40;;;;;;5008565;28;20207;-54
2022/01/26 13:34:17;;;;;;;2.58;1.50;;;22.80;55.40;;;;;;5009682;28;20247;-55
2022/01/26 13:39:52;;;;;;;1.88;1.50;;;22.80;55.40;;;;;;4995469;28;20280;-51
2022/01/26 13:48:21;;;;;;;1.52;1.30;;;22.70;55.40;;;;;;5001068;28;20201;-46
2022/01/26 13:50:57;;;;;;;2.15;1.48;;;22.70;55.50;;;;;;5004519;28;20262;-55
2022/01/26 13:53:36;;;;;;;1.60;1.45;;;22.70;55.50;;;;;;5009854;28;20268;-48
2022/01/26 13:56:14;;;;;;;1.80;1.27;;;22.70;55.50;;;;;;5008672;28;20807;-53
2022/01/26 14:01:28;;;;;;;1.30;1.20;;;22.60;55.50;;;;;;4993361;28;20211;-57
2022/01/26 14:04:04;;;;;;;1.98;1.30;;;22.60;55.50;;;;;;5009669;28;20215;-53
2022/01/26 14:06:35;;;;;;;2.50;2.00;;;22.60;55.50;;;;;;4992962;28;20283;-53
2022/01/26 14:09:05;;;;;;;1.90;1.70;;;22.50;55.40;;;;;;5008278;28;20220;-52
2022/01/26 14:11:36;;;;;;;2.15;1.58;;;22.50;55.40;;;;;;5007495;28;20200;-46
2022/01/26 14:14:09;;;;;;;1.95;1.40;;;22.50;55.40;;;;;;5009907;28;20251;-48
2022/01/26 14:16:44;;;;;;;2.60;1.60;;;22.50;55.50;;;;;;5008059;28;20676;-42
2022/01/26 14:19:27;;;;;;;1.70;1.27;;;22.50;55.50;;;;;;5009706;28;20193;-52
2022/01/26 14:27:38;;;;;;;2.00;1.30;;;22.40;55.40;;;;;;5003576;28;20287;-54
2022/01/26 14:30:25;;;;;;;2.30;1.15;;;22.40;55.50;;;;;;4994118;28;20672;-44
2022/01/26 14:33:14;;;;;;;1.65;1.10;;;22.40;55.50;;;;;;4995339;28;20197;-54
2022/01/26 14:36:07;;;;;;;1.67;1.30;;;22.30;55.50;;;;;;5008355;28;20253;-44
2022/01/26 14:55:53;;;;;;;1.35;1.00;;;22.20;55.50;;;;;;5006844;28;20232;-57
2022/01/26 15:34:59;;;;;;;0.90;0.90;;;21.90;55.50;;;;;;5008135;28;20228;-49
2022/01/26 15:40:27;;;;;;;0.85;0.80;;;21.90;55.50;;;;;;5013261;28;20278;-54
2022/01/26 15:48:50;;;;;;;2.20;0.98;;;21.90;55.60;;;;;;5013025;28;20208;-51
2022/01/26 15:51:49;;;;;;;1.38;1.20;;;21.80;55.40;;;;;;5011621;28;20232;-53
2022/01/26 15:57:48;;;;;;;2.15;1.13;;;21.80;55.40;;;;;;5012437;28;20658;-54
2022/01/26 16:06:04;;;;;;;1.58;0.98;;;21.80;55.50;;;;;;4979460;28;20361;-54
2022/01/26 16:17:19;;;;;;;3.83;0.80;;;21.70;55.50;;;;;;5011114;28;20719;-50
2022/01/26 16:20:09;;;;;;;1.10;0.98;;;21.70;55.50;;;;;;5010437;28;20193;-45
2022/01/26 17:02:51;;;;;;;1.05;0.93;;;21.40;55.40;;;;;;5067899;28;20217;-46
2022/01/26 18:07:19;;;;;;;0.90;0.77;;;21.10;55.40;;;;;;5038545;28;20203;-50
2022/01/26 18:15:35;;;;;;;0.98;0.75;;;21.10;55.40;;;;;;5056684;28;20241;-56
2022/01/26 18:26:37;;;;;;;1.73;0.68;;;21.00;55.30;;;;;;5069683;28;20279;-51
2022/01/26 18:32:23;;;;;;;1.35;0.70;;;21.00;55.30;;;;;;5069322;28;20214;-51